HFY5UP EGPH-EGCC
Flight info
| Callsign | HFY5UP |
|---|---|
| Flight time | 0h 38m |
| Altitude | 25000 |
| Route | GOSAM P600 FENIK L612 LAKEY |
| Aircraft | A343/H-SDE2E3FGHIJ4J5M1RWXY/LB1D1 |
Departure
| Time | 2026-05-03 22:08 |
|---|---|
| Airport | Edinburgh Airport (EGPH) |
Arrival
| Time | 2026-05-03 22:46 |
|---|---|
| Airport | Manchester Airport (EGCC) |
| Time | Latitude | Longitude | Altitude | Speed | Heading |
|---|---|---|---|---|---|
| 2026-05-03 21:41 | 55.94986 | -3.36264 | 120 ft | 0 kts | 117° |
| 2026-05-03 21:55 | 55.94987 | -3.36268 | 120 ft | 2 kts | 117° |
| 2026-05-03 21:56 | 55.94999 | -3.36310 | 117 ft | 4 kts | 117° |
| 2026-05-03 21:56 | 55.95009 | -3.36345 | 115 ft | 3 kts | 116° |
| 2026-05-03 21:56 | 55.95015 | -3.36386 | 115 ft | 4 kts | 73° |
| 2026-05-03 21:56 | 55.95004 | -3.36426 | 115 ft | 2 kts | 59° |
| 2026-05-03 21:57 | 55.94991 | -3.36464 | 115 ft | 4 kts | 59° |
| 2026-05-03 21:57 | 55.94977 | -3.36505 | 115 ft | 4 kts | 59° |
| 2026-05-03 21:57 | 55.94963 | -3.36546 | 115 ft | 4 kts | 59° |
| 2026-05-03 21:57 | 55.94954 | -3.36573 | 115 ft | 0 kts | 59° |
| 2026-05-03 22:00 | 55.94959 | -3.36559 | 115 ft | 3 kts | 59° |
| 2026-05-03 22:00 | 55.94976 | -3.36509 | 116 ft | 6 kts | 59° |
| 2026-05-03 22:01 | 55.95002 | -3.36433 | 119 ft | 8 kts | 56° |
| 2026-05-03 22:01 | 55.95050 | -3.36406 | 117 ft | 7 kts | 341° |
| 2026-05-03 22:01 | 55.95060 | -3.36475 | 115 ft | 6 kts | 258° |
| 2026-05-03 22:01 | 55.95039 | -3.36558 | 117 ft | 8 kts | 242° |
| 2026-05-03 22:02 | 55.95005 | -3.36661 | 118 ft | 11 kts | 239° |
| 2026-05-03 22:02 | 55.94962 | -3.36791 | 117 ft | 13 kts | 239° |
| 2026-05-03 22:02 | 55.94910 | -3.36944 | 116 ft | 15 kts | 238° |
| 2026-05-03 22:02 | 55.94851 | -3.37115 | 115 ft | 17 kts | 238° |
| 2026-05-03 22:03 | 55.94788 | -3.37300 | 116 ft | 18 kts | 239° |
| 2026-05-03 22:03 | 55.94721 | -3.37499 | 116 ft | 19 kts | 239° |
| 2026-05-03 22:03 | 55.94650 | -3.37708 | 117 ft | 20 kts | 239° |
| 2026-05-03 22:03 | 55.94575 | -3.37930 | 116 ft | 21 kts | 239° |
| 2026-05-03 22:04 | 55.94521 | -3.38090 | 116 ft | 12 kts | 239° |
| 2026-05-03 22:04 | 55.94482 | -3.38204 | 116 ft | 11 kts | 239° |
| 2026-05-03 22:04 | 55.94439 | -3.38331 | 116 ft | 13 kts | 239° |
| 2026-05-03 22:04 | 55.94390 | -3.38475 | 115 ft | 14 kts | 239° |
| 2026-05-03 22:05 | 55.94336 | -3.38636 | 116 ft | 15 kts | 239° |
| 2026-05-03 22:05 | 55.94295 | -3.38756 | 116 ft | 9 kts | 239° |
| 2026-05-03 22:05 | 55.94297 | -3.38862 | 115 ft | 9 kts | 306° |
| 2026-05-03 22:05 | 55.94354 | -3.38935 | 116 ft | 11 kts | 327° |
| 2026-05-03 22:06 | 55.94401 | -3.38967 | 115 ft | 4 kts | 14° |
| 2026-05-03 22:06 | 55.94427 | -3.38932 | 117 ft | 5 kts | 45° |
| 2026-05-03 22:06 | 55.94433 | -3.38915 | 116 ft | 0 kts | 56° |
| 2026-05-03 22:07 | 55.94447 | -3.38876 | 114 ft | 16 kts | 56° |
| 2026-05-03 22:07 | 55.94627 | -3.38350 | 113 ft | 83 kts | 59° |
| 2026-05-03 22:07 | 55.95029 | -3.37165 | 113 ft | 138 kts | 59° |
| 2026-05-03 22:07 | 55.95509 | -3.35757 | 299 ft | 164 kts | 58° |
| 2026-05-03 22:08 | 55.96179 | -3.34059 | 865 ft | 171 kts | 46° |
| 2026-05-03 22:08 | 55.97180 | -3.32913 | 1483 ft | 185 kts | 20° |
| 2026-05-03 22:08 | 55.98503 | -3.32806 | 2070 ft | 197 kts | 346° |
| 2026-05-03 22:08 | 55.99676 | -3.34005 | 2937 ft | 198 kts | 316° |
| 2026-05-03 22:09 | 56.00235 | -3.35390 | 3332 ft | 214 kts | 297° |
| 2026-05-03 22:09 | 56.00777 | -3.38065 | 3880 ft | 241 kts | 287° |
| 2026-05-03 22:09 | 56.01241 | -3.41005 | 4785 ft | 250 kts | 287° |
| 2026-05-03 22:10 | 56.01325 | -3.47370 | 6630 ft | 267 kts | 257° |
| 2026-05-03 22:10 | 56.00751 | -3.50524 | 7645 ft | 271 kts | 247° |
| 2026-05-03 22:10 | 55.99917 | -3.53550 | 8699 ft | 272 kts | 244° |
| 2026-05-03 22:10 | 55.99026 | -3.56550 | 9750 ft | 275 kts | 243° |
| 2026-05-03 22:11 | 55.98102 | -3.59579 | 10550 ft | 284 kts | 243° |
| 2026-05-03 22:11 | 55.97115 | -3.62776 | 10933 ft | 305 kts | 243° |
| 2026-05-03 22:11 | 55.96046 | -3.66198 | 11313 ft | 325 kts | 242° |
| 2026-05-03 22:11 | 55.94912 | -3.69802 | 11802 ft | 340 kts | 242° |
| 2026-05-03 22:12 | 55.93753 | -3.73470 | 12461 ft | 348 kts | 242° |
| 2026-05-03 22:12 | 55.92562 | -3.77229 | 13198 ft | 354 kts | 242° |
| 2026-05-03 22:12 | 55.91340 | -3.81083 | 13974 ft | 359 kts | 242° |
| 2026-05-03 22:12 | 55.90101 | -3.84980 | 14681 ft | 364 kts | 242° |
| 2026-05-03 22:13 | 55.88846 | -3.88924 | 15427 ft | 368 kts | 242° |
| 2026-05-03 22:13 | 55.87575 | -3.92910 | 16175 ft | 372 kts | 242° |
| 2026-05-03 22:13 | 55.86290 | -3.96935 | 16913 ft | 376 kts | 242° |
| 2026-05-03 22:13 | 55.84809 | -4.00825 | 17606 ft | 383 kts | 231° |
| 2026-05-03 22:14 | 55.82842 | -4.04062 | 18340 ft | 390 kts | 216° |
| 2026-05-03 22:14 | 55.80375 | -4.06126 | 18948 ft | 398 kts | 197° |
| 2026-05-03 22:14 | 55.77604 | -4.06632 | 19529 ft | 406 kts | 178° |
| 2026-05-03 22:14 | 55.74777 | -4.05977 | 20099 ft | 413 kts | 169° |
| 2026-05-03 22:15 | 55.71972 | -4.04738 | 20672 ft | 418 kts | 165° |
| 2026-05-03 22:15 | 55.69170 | -4.03254 | 21288 ft | 422 kts | 163° |
| 2026-05-03 22:15 | 55.66357 | -4.01724 | 21880 ft | 426 kts | 163° |
| 2026-05-03 22:15 | 55.63500 | -4.00223 | 22439 ft | 430 kts | 164° |
| 2026-05-03 22:16 | 55.60607 | -3.98780 | 22984 ft | 435 kts | 165° |
| 2026-05-03 22:16 | 55.57668 | -3.97377 | 23531 ft | 439 kts | 165° |
| 2026-05-03 22:16 | 55.54740 | -3.96021 | 23980 ft | 443 kts | 165° |
| 2026-05-03 22:16 | 55.51740 | -3.94655 | 24405 ft | 447 kts | 165° |
| 2026-05-03 22:17 | 55.48707 | -3.93283 | 24814 ft | 451 kts | 165° |
| 2026-05-03 22:17 | 55.45641 | -3.91898 | 24995 ft | 458 kts | 165° |
| 2026-05-03 22:17 | 55.42527 | -3.90490 | 25012 ft | 466 kts | 165° |
| 2026-05-03 22:17 | 55.39387 | -3.89069 | 25028 ft | 466 kts | 165° |
| 2026-05-03 22:18 | 55.36249 | -3.87650 | 25023 ft | 466 kts | 165° |
| 2026-05-03 22:18 | 55.33110 | -3.86231 | 25024 ft | 465 kts | 165° |
| 2026-05-03 22:18 | 55.29985 | -3.84821 | 25021 ft | 464 kts | 165° |
| 2026-05-03 22:18 | 55.26852 | -3.83409 | 25021 ft | 464 kts | 165° |
| 2026-05-03 22:19 | 55.23742 | -3.81918 | 25016 ft | 464 kts | 161° |
| 2026-05-03 22:19 | 55.20774 | -3.79753 | 25019 ft | 463 kts | 153° |
| 2026-05-03 22:19 | 55.17892 | -3.77235 | 25017 ft | 462 kts | 152° |
| 2026-05-03 22:19 | 55.15051 | -3.74592 | 25017 ft | 462 kts | 151° |
| 2026-05-03 22:20 | 55.12241 | -3.71900 | 25018 ft | 461 kts | 150° |
| 2026-05-03 22:20 | 55.09426 | -3.69180 | 25015 ft | 461 kts | 150° |
| 2026-05-03 22:20 | 55.06621 | -3.66474 | 25015 ft | 461 kts | 150° |
| 2026-05-03 22:20 | 55.03812 | -3.63781 | 25014 ft | 461 kts | 150° |
| 2026-05-03 22:21 | 55.00990 | -3.61091 | 25015 ft | 461 kts | 150° |
| 2026-05-03 22:21 | 54.98177 | -3.58424 | 25013 ft | 461 kts | 151° |
| 2026-05-03 22:21 | 54.95358 | -3.55754 | 25014 ft | 461 kts | 151° |
| 2026-05-03 22:21 | 54.92540 | -3.53096 | 25011 ft | 460 kts | 151° |
| 2026-05-03 22:22 | 54.89722 | -3.50450 | 25009 ft | 459 kts | 151° |
| 2026-05-03 22:22 | 54.86909 | -3.47814 | 25011 ft | 460 kts | 151° |
| 2026-05-03 22:22 | 54.84093 | -3.45177 | 25010 ft | 460 kts | 151° |
| 2026-05-03 22:22 | 54.81277 | -3.42542 | 25010 ft | 460 kts | 151° |
| 2026-05-03 22:23 | 54.78492 | -3.39940 | 25004 ft | 460 kts | 151° |
| 2026-05-03 22:23 | 54.75640 | -3.37279 | 25004 ft | 459 kts | 151° |
| 2026-05-03 22:23 | 54.72864 | -3.34692 | 25004 ft | 459 kts | 151° |
| 2026-05-03 22:23 | 54.70038 | -3.32124 | 25007 ft | 459 kts | 153° |
| 2026-05-03 22:24 | 54.67138 | -3.29824 | 25004 ft | 458 kts | 156° |
| 2026-05-03 22:24 | 54.64200 | -3.27692 | 25005 ft | 456 kts | 157° |
| 2026-05-03 22:24 | 54.61261 | -3.25617 | 25005 ft | 456 kts | 158° |
| 2026-05-03 22:24 | 54.58324 | -3.23531 | 25001 ft | 457 kts | 157° |
| 2026-05-03 22:25 | 54.55392 | -3.21415 | 25005 ft | 457 kts | 157° |
| 2026-05-03 22:25 | 54.52468 | -3.19273 | 25004 ft | 457 kts | 157° |
| 2026-05-03 22:25 | 54.49553 | -3.17117 | 24999 ft | 457 kts | 157° |
| 2026-05-03 22:25 | 54.46630 | -3.14938 | 24999 ft | 458 kts | 157° |
| 2026-05-03 22:26 | 54.43708 | -3.12764 | 24997 ft | 456 kts | 157° |
| 2026-05-03 22:26 | 54.40807 | -3.10611 | 24922 ft | 451 kts | 157° |
| 2026-05-03 22:26 | 54.37939 | -3.08486 | 24304 ft | 448 kts | 157° |
| 2026-05-03 22:26 | 54.35083 | -3.06375 | 23589 ft | 447 kts | 157° |
| 2026-05-03 22:27 | 54.32231 | -3.04270 | 22783 ft | 446 kts | 157° |
| 2026-05-03 22:27 | 54.29397 | -3.02180 | 21798 ft | 439 kts | 157° |
| 2026-05-03 22:27 | 54.26626 | -3.00140 | 20383 ft | 429 kts | 157° |
| 2026-05-03 22:27 | 54.23985 | -2.98054 | 19803 ft | 405 kts | 151° |
| 2026-05-03 22:28 | 54.21605 | -2.95577 | 19434 ft | 403 kts | 147° |
| 2026-05-03 22:28 | 54.19244 | -2.92932 | 18917 ft | 408 kts | 147° |
| 2026-05-03 22:28 | 54.16877 | -2.90261 | 18383 ft | 406 kts | 147° |
| 2026-05-03 22:28 | 54.14535 | -2.87626 | 17806 ft | 402 kts | 147° |
| 2026-05-03 22:29 | 54.12267 | -2.85079 | 17280 ft | 398 kts | 147° |
| 2026-05-03 22:29 | 54.09972 | -2.82508 | 16760 ft | 393 kts | 147° |
| 2026-05-03 22:29 | 54.07692 | -2.79959 | 16227 ft | 390 kts | 147° |
| 2026-05-03 22:29 | 54.05429 | -2.77432 | 15736 ft | 388 kts | 147° |
| 2026-05-03 22:30 | 54.03388 | -2.75157 | 15287 ft | 385 kts | 147° |
| 2026-05-03 22:30 | 54.01087 | -2.72596 | 15035 ft | 382 kts | 147° |
| 2026-05-03 22:30 | 53.98873 | -2.70134 | 14625 ft | 379 kts | 147° |
| 2026-05-03 22:30 | 53.96651 | -2.67668 | 13849 ft | 384 kts | 147° |
| 2026-05-03 22:31 | 53.94415 | -2.65188 | 13302 ft | 381 kts | 147° |
| 2026-05-03 22:31 | 53.92233 | -2.62771 | 13089 ft | 367 kts | 147° |
| 2026-05-03 22:31 | 53.90155 | -2.60472 | 12788 ft | 345 kts | 147° |
| 2026-05-03 22:31 | 53.88239 | -2.58353 | 12433 ft | 322 kts | 147° |
| 2026-05-03 22:32 | 53.86385 | -2.56307 | 11909 ft | 308 kts | 147° |
| 2026-05-03 22:32 | 53.84631 | -2.54374 | 11316 ft | 301 kts | 147° |
| 2026-05-03 22:32 | 53.82896 | -2.52457 | 10761 ft | 293 kts | 147° |
| 2026-05-03 22:32 | 53.81187 | -2.50578 | 10276 ft | 287 kts | 147° |
| 2026-05-03 22:33 | 53.79534 | -2.48763 | 9856 ft | 288 kts | 147° |
| 2026-05-03 22:33 | 53.77852 | -2.46920 | 9454 ft | 287 kts | 147° |
| 2026-05-03 22:33 | 53.76178 | -2.45084 | 9051 ft | 290 kts | 147° |
| 2026-05-03 22:33 | 53.74476 | -2.43220 | 8661 ft | 290 kts | 147° |
| 2026-05-03 22:34 | 53.72782 | -2.41366 | 8280 ft | 290 kts | 147° |
| 2026-05-03 22:34 | 53.71098 | -2.39524 | 8006 ft | 284 kts | 147° |
| 2026-05-03 22:34 | 53.69477 | -2.37751 | 7981 ft | 272 kts | 148° |
| 2026-05-03 22:34 | 53.67927 | -2.36058 | 7984 ft | 260 kts | 148° |
| 2026-05-03 22:35 | 53.66310 | -2.34787 | 7983 ft | 257 kts | 170° |
| 2026-05-03 22:35 | 53.64552 | -2.34927 | 7982 ft | 255 kts | 199° |
| 2026-05-03 22:35 | 53.63009 | -2.36330 | 7856 ft | 251 kts | 217° |
| 2026-05-03 22:35 | 53.61628 | -2.38134 | 7544 ft | 252 kts | 219° |
| 2026-05-03 22:36 | 53.60269 | -2.40005 | 7224 ft | 253 kts | 220° |
| 2026-05-03 22:36 | 53.58910 | -2.41890 | 7015 ft | 252 kts | 220° |
| 2026-05-03 22:36 | 53.57558 | -2.43773 | 6977 ft | 253 kts | 220° |
| 2026-05-03 22:36 | 53.56202 | -2.45658 | 6977 ft | 254 kts | 220° |
| 2026-05-03 22:37 | 53.54841 | -2.47547 | 6977 ft | 253 kts | 220° |
| 2026-05-03 22:37 | 53.53484 | -2.49427 | 6980 ft | 253 kts | 220° |
| 2026-05-03 22:37 | 53.52124 | -2.51314 | 6976 ft | 253 kts | 220° |
| 2026-05-03 22:37 | 53.50767 | -2.53199 | 6978 ft | 253 kts | 220° |
| 2026-05-03 22:38 | 53.49404 | -2.55089 | 6901 ft | 255 kts | 220° |
| 2026-05-03 22:38 | 53.48020 | -2.56958 | 6617 ft | 255 kts | 216° |
| 2026-05-03 22:38 | 53.46401 | -2.58106 | 6332 ft | 254 kts | 189° |
| 2026-05-03 22:38 | 53.44617 | -2.58350 | 5881 ft | 260 kts | 181° |
| 2026-05-03 22:39 | 53.42816 | -2.58393 | 5625 ft | 258 kts | 180° |
| 2026-05-03 22:39 | 53.41016 | -2.58419 | 5271 ft | 259 kts | 180° |
| 2026-05-03 22:39 | 53.39179 | -2.58438 | 5012 ft | 269 kts | 180° |
| 2026-05-03 22:39 | 53.37325 | -2.58453 | 4979 ft | 260 kts | 180° |
| 2026-05-03 22:40 | 53.35551 | -2.58474 | 4877 ft | 251 kts | 180° |
| 2026-05-03 22:40 | 53.33813 | -2.58508 | 4666 ft | 247 kts | 180° |
| 2026-05-03 22:40 | 53.32112 | -2.58481 | 4434 ft | 243 kts | 172° |
| 2026-05-03 22:40 | 53.30555 | -2.57558 | 4278 ft | 233 kts | 146° |
| 2026-05-03 22:41 | 53.29251 | -2.56048 | 4194 ft | 224 kts | 141° |
| 2026-05-03 22:41 | 53.28030 | -2.54502 | 4100 ft | 215 kts | 140° |
| 2026-05-03 22:41 | 53.26877 | -2.53009 | 3993 ft | 204 kts | 139° |
| 2026-05-03 22:41 | 53.25790 | -2.51605 | 3749 ft | 192 kts | 139° |
| 2026-05-03 22:42 | 53.24954 | -2.50039 | 3516 ft | 171 kts | 106° |
| 2026-05-03 22:42 | 53.25085 | -2.48277 | 3457 ft | 152 kts | 56° |
| 2026-05-03 22:42 | 53.25807 | -2.46949 | 3285 ft | 156 kts | 46° |
| 2026-05-03 22:42 | 53.26566 | -2.45639 | 3010 ft | 157 kts | 49° |
| 2026-05-03 22:43 | 53.27263 | -2.44275 | 2715 ft | 156 kts | 53° |
| 2026-05-03 22:43 | 53.27934 | -2.42852 | 2440 ft | 154 kts | 53° |
| 2026-05-03 22:43 | 53.28604 | -2.41478 | 2225 ft | 152 kts | 52° |
| 2026-05-03 22:43 | 53.29272 | -2.40100 | 2018 ft | 150 kts | 52° |
| 2026-05-03 22:44 | 53.29911 | -2.38781 | 1802 ft | 147 kts | 52° |
| 2026-05-03 22:44 | 53.30559 | -2.37442 | 1622 ft | 147 kts | 52° |
| 2026-05-03 22:44 | 53.31195 | -2.36129 | 1409 ft | 146 kts | 52° |
| 2026-05-03 22:44 | 53.31805 | -2.34868 | 1199 ft | 133 kts | 52° |
| 2026-05-03 22:45 | 53.32368 | -2.33704 | 1025 ft | 124 kts | 51° |
| 2026-05-03 22:45 | 53.32907 | -2.32591 | 842 ft | 122 kts | 51° |
| 2026-05-03 22:45 | 53.33437 | -2.31495 | 676 ft | 124 kts | 50° |
| 2026-05-03 22:45 | 53.33985 | -2.30379 | 477 ft | 124 kts | 51° |
| 2026-05-03 22:46 | 53.34529 | -2.29263 | 321 ft | 122 kts | 52° |
| 2026-05-03 22:46 | 53.35056 | -2.28170 | 245 ft | 119 kts | 51° |
| 2026-05-03 22:46 | 53.35525 | -2.27186 | 265 ft | 78 kts | 51° |
| 2026-05-03 22:46 | 53.35679 | -2.26864 | 270 ft | 0 kts | 51° |